This is the latest recevied weather packets stored in our database for station/object JH5HTX-13. If no packets are shown the sender has not sent any weather packets the latest 10 day(s).
| Time | Temp. | Humidity | Pressure | Rain* | Wind** | Luminosity | Snow |
|---|---|---|---|---|---|---|---|
| 1777620565 | 14.44° C | 73% | 1004.3 hPa | 0 mm | - | - | - |
| 1777619665 | 15° C | 71% | 1003.7 hPa | 0 mm | - | - | - |
| 1777618764 | 15.56° C | 71% | 1003.5 hPa | 0 mm | - | - | - |
| 1777617864 | 15° C | 69% | 1003.4 hPa | 0 mm | - | - | - |
| 1777616964 | 14.44° C | 72% | 1003.5 hPa | 1.52 mm | - | - | - |
| 1777616064 | 15° C | 73% | 1003.5 hPa | 1.52 mm | - | - | - |
| 1777615164 | 15.56° C | 70% | 1003.5 hPa | 1.52 mm | - | - | - |
| 1777614264 | 16.11° C | 68% | 1003.5 hPa | 1.52 mm | - | - | - |
| 1777613364 | 17.22° C | 70% | 1003.2 hPa | 0 mm | - | - | - |
| 1777612464 | 17.78° C | 71% | 1002.9 hPa | 0 mm | - | - | - |
| 1777611564 | 17.22° C | 72% | 1002.7 hPa | 0 mm | - | - | - |
| 1777610663 | 17.22° C | 71% | 1002.5 hPa | 0 mm | - | - | - |
| 1777609763 | 16.67° C | 72% | 1003 hPa | 0 mm | - | - | - |
| 1777608863 | 16.67° C | 71% | 1003.2 hPa | 0 mm | - | - | - |
| 1777607963 | 17.78° C | 70% | 1003 hPa | 0 mm | - | - | - |
| 1777607063 | 17.78° C | 72% | 1003.2 hPa | 0 mm | - | - | - |
| 1777606163 | 17.78° C | 74% | 1003.3 hPa | 0 mm | - | - | - |
| 1777605263 | 17.78° C | 73% | 1003.4 hPa | 0 mm | - | - | - |
| 1777604363 | 17.22° C | 76% | 1003.4 hPa | 1.52 mm | - | - | - |
| 1777603463 | 17.22° C | 76% | 1003.6 hPa | 1.52 mm | - | - | - |
| 1777602563 | 17.78° C | 73% | 1003.7 hPa | 1.52 mm | - | - | - |
| 1777601662 | 17.78° C | 73% | 1003.6 hPa | 1.52 mm | - | - | - |
| 1777587261 | 15.56° C | 97% | 1003.6 hPa | 0 mm | - | - | - |
| 1777585461 | 15.56° C | 96% | 1003.3 hPa | 0 mm | - | - | - |
| 1777580060 | 15° C | 98% | 1002.2 hPa | 0 mm | - | - | - |
* Rain latest hour (hover to see other rain measurements)
** Current wind speed in m/s (hover to see current wind gust speed)